Time;durP1;ratioP1;P1;durP2;ratioP2;P2;SDS_P1;SDS_P2;PMS_P1;PMS_P2;Temp;Humidity;BMP_temperature;BMP_pressure;BME280_temperature;BME280_humidity;BME280_pressure;Samples;Min_cycle;Max_cycle;Signal;HPM_P1;HPM_P2
2023/09/11 00:00:00;;;;;;;21.10;11.35;;;;;;;;;;5034914;28;20365;-59
2023/09/11 00:02:26;;;;;;;26.27;11.80;;;;;;;;;;5052154;28;20638;-58
2023/09/11 00:04:52;;;;;;;15.18;11.10;;;;;;;;;;5049342;28;20124;-58
2023/09/11 00:07:17;;;;;;;23.58;11.77;;;;;;;;;;5044909;28;20196;-58
2023/09/11 00:09:43;;;;;;;20.90;11.68;;;;;;;;;;5046389;28;20072;-59
2023/09/11 00:12:08;;;;;;;17.58;11.18;;;;;;;;;;5050407;28;20029;-59
2023/09/11 00:14:34;;;;;;;18.45;11.70;;;;;;;;;;5050490;28;20036;-59
2023/09/11 00:17:00;;;;;;;21.08;11.38;;;;;;;;;;5039437;28;20041;-59
2023/09/11 00:19:25;;;;;;;18.77;11.05;;;;;;;;;;5037820;28;20074;-59
2023/09/11 00:21:50;;;;;;;17.65;11.77;;;;;;;;;;5048657;28;20319;-59
2023/09/11 00:24:16;;;;;;;17.15;11.63;;;;;;;;;;5048429;28;20027;-59
2023/09/11 00:26:41;;;;;;;22.02;12.25;;;;;;;;;;5045999;28;20465;-59
2023/09/11 00:29:07;;;;;;;25.98;12.00;;;;;;;;;;5051807;28;20081;-60
2023/09/11 00:31:32;;;;;;;21.15;12.40;;;;;;;;;;5045316;28;20418;-60
2023/09/11 00:33:57;;;;;;;19.52;11.43;;;;;;;;;;5052605;28;20075;-59
2023/09/11 00:36:23;;;;;;;24.15;12.52;;;;;;;;;;5047728;28;20044;-60
2023/09/11 00:38:50;;;;;;;17.98;12.02;;;;;;;;;;5038869;28;20048;-59
2023/09/11 00:41:15;;;;;;;25.63;12.60;;;;;;;;;;5032265;28;20052;-60
2023/09/11 00:43:41;;;;;;;20.88;12.55;;;;;;;;;;5033039;28;20033;-59
2023/09/11 00:46:06;;;;;;;23.67;12.30;;;;;;;;;;5036768;28;20024;-60
2023/09/11 00:48:32;;;;;;;22.23;12.55;;;;;;;;;;5050186;28;20063;-59
2023/09/11 00:50:57;;;;;;;19.55;12.30;;;;;;;;;;5050855;28;20028;-59
2023/09/11 00:53:24;;;;;;;19.85;12.73;;;;;;;;;;5047306;28;20045;-59
2023/09/11 00:55:49;;;;;;;23.60;12.27;;;;;;;;;;5049318;28;20559;-58
2023/09/11 00:58:16;;;;;;;19.40;12.55;;;;;;;;;;5032014;28;20056;-59
2023/09/11 01:00:44;;;;;;;20.25;12.05;;;;;;;;;;5031820;28;20021;-60
2023/09/11 01:03:11;;;;;;;20.52;12.48;;;;;;;;;;5033034;28;20112;-58
2023/09/11 01:05:37;;;;;;;19.70;12.65;;;;;;;;;;5043585;28;20028;-60
2023/09/11 01:08:03;;;;;;;22.67;12.70;;;;;;;;;;5047553;28;20111;-60
2023/09/11 01:10:29;;;;;;;22.95;12.52;;;;;;;;;;5032156;28;20447;-59
2023/09/11 01:12:55;;;;;;;18.85;12.25;;;;;;;;;;5035690;28;20120;-59
2023/09/11 01:15:20;;;;;;;24.30;12.75;;;;;;;;;;5046119;28;20033;-59
2023/09/11 01:18:13;;;;;;;20.58;12.95;;;;;;;;;;5042265;28;20064;-59
2023/09/11 01:21:20;;;;;;;21.55;12.52;;;;;;;;;;5047409;28;20179;-59
2023/09/11 01:24:16;;;;;;;25.65;13.27;;;;;;;;;;5046080;28;20082;-58
2023/09/11 01:27:02;;;;;;;20.83;12.48;;;;;;;;;;5042246;28;20473;-60
2023/09/11 01:29:33;;;;;;;25.02;12.98;;;;;;;;;;5049991;28;20037;-59
2023/09/11 01:32:02;;;;;;;22.73;12.85;;;;;;;;;;5049794;28;20075;-60
2023/09/11 01:34:27;;;;;;;26.77;13.20;;;;;;;;;;5045280;28;20434;-59
2023/09/11 01:36:53;;;;;;;21.42;13.35;;;;;;;;;;5047505;28;20040;-59
2023/09/11 01:39:19;;;;;;;21.80;13.43;;;;;;;;;;5049515;28;20547;-59
2023/09/11 01:41:48;;;;;;;22.30;13.20;;;;;;;;;;5037609;28;20033;-59
2023/09/11 01:44:23;;;;;;;24.00;13.17;;;;;;;;;;5047120;28;20041;-57
2023/09/11 01:46:50;;;;;;;19.52;12.52;;;;;;;;;;5043263;28;20079;-58
2023/09/11 01:49:20;;;;;;;22.17;13.13;;;;;;;;;;5046903;28;20072;-59
2023/09/11 01:51:47;;;;;;;23.02;12.95;;;;;;;;;;5050036;28;20064;-59
2023/09/11 01:54:13;;;;;;;20.50;13.05;;;;;;;;;;5046500;28;20108;-59
2023/09/11 01:56:39;;;;;;;29.13;12.55;;;;;;;;;;5043654;28;20033;-60
2023/09/11 01:59:04;;;;;;;26.48;13.38;;;;;;;;;;5032893;28;20036;-59
2023/09/11 02:01:30;;;;;;;19.17;12.70;;;;;;;;;;5030202;28;20030;-61
2023/09/11 02:03:55;;;;;;;22.55;12.93;;;;;;;;;;5041070;28;20040;-59
2023/09/11 02:06:21;;;;;;;22.63;12.88;;;;;;;;;;5039162;28;20041;-59
2023/09/11 02:08:46;;;;;;;20.65;13.55;;;;;;;;;;5043267;28;20482;-58
2023/09/11 02:11:11;;;;;;;24.30;11.95;;;;;;;;;;5036950;28;20032;-60
2023/09/11 02:13:37;;;;;;;21.30;13.10;;;;;;;;;;5049782;28;20936;-59
2023/09/11 02:16:02;;;;;;;27.70;13.73;;;;;;;;;;5036635;28;20073;-59
2023/09/11 02:18:28;;;;;;;19.58;13.35;;;;;;;;;;5050216;28;20037;-58
2023/09/11 02:20:53;;;;;;;23.08;13.50;;;;;;;;;;5046639;28;20057;-59
2023/09/11 02:23:19;;;;;;;29.90;13.63;;;;;;;;;;5047611;28;20386;-58
2023/09/11 02:25:51;;;;;;;21.95;13.57;;;;;;;;;;5044273;28;20044;-59
2023/09/11 02:28:16;;;;;;;19.83;13.20;;;;;;;;;;5039945;28;20481;-57
2023/09/11 02:30:41;;;;;;;22.52;12.95;;;;;;;;;;5047173;28;20036;-59
2023/09/11 02:33:07;;;;;;;21.00;12.93;;;;;;;;;;5049401;28;20037;-59
2023/09/11 02:35:32;;;;;;;20.10;13.32;;;;;;;;;;5041260;28;20036;-61
2023/09/11 02:37:58;;;;;;;20.92;13.38;;;;;;;;;;5038666;28;20462;-59
2023/09/11 02:40:24;;;;;;;23.00;13.48;;;;;;;;;;5050136;28;20043;-59
2023/09/11 02:42:49;;;;;;;23.92;13.27;;;;;;;;;;5044829;28;20040;-59
2023/09/11 02:45:14;;;;;;;20.48;12.80;;;;;;;;;;5048790;28;20037;-59
2023/09/11 02:47:40;;;;;;;20.15;13.15;;;;;;;;;;5048002;28;20473;-59
2023/09/11 02:50:06;;;;;;;22.15;13.20;;;;;;;;;;5047015;28;20393;-60
2023/09/11 02:52:31;;;;;;;18.27;12.48;;;;;;;;;;5043567;28;20057;-59
2023/09/11 02:54:57;;;;;;;21.75;13.07;;;;;;;;;;5031200;28;20026;-59
2023/09/11 02:57:22;;;;;;;18.23;12.40;;;;;;;;;;5040090;28;20029;-59
2023/09/11 02:59:47;;;;;;;18.23;13.10;;;;;;;;;;5040522;28;20461;-59
2023/09/11 03:02:13;;;;;;;20.98;12.85;;;;;;;;;;5040860;28;20036;-59
2023/09/11 03:04:38;;;;;;;24.63;12.90;;;;;;;;;;5041389;28;20021;-59
2023/09/11 03:07:04;;;;;;;21.23;13.80;;;;;;;;;;5042285;28;20033;-60
2023/09/11 03:09:29;;;;;;;19.98;13.18;;;;;;;;;;5036117;28;20088;-59
2023/09/11 03:11:55;;;;;;;19.60;13.85;;;;;;;;;;5039508;28;20025;-59
2023/09/11 03:14:22;;;;;;;20.40;13.65;;;;;;;;;;5046831;28;20032;-58
2023/09/11 03:16:48;;;;;;;19.92;13.18;;;;;;;;;;5037121;28;20052;-60
2023/09/11 03:19:13;;;;;;;20.73;14.32;;;;;;;;;;5049292;28;20116;-60
2023/09/11 03:21:39;;;;;;;22.10;13.63;;;;;;;;;;5047623;28;20025;-59
2023/09/11 03:24:04;;;;;;;21.00;13.60;;;;;;;;;;5053899;28;20025;-59
2023/09/11 03:26:30;;;;;;;20.20;13.48;;;;;;;;;;5051398;28;20472;-59
2023/09/11 03:28:55;;;;;;;22.65;13.25;;;;;;;;;;5045128;28;20037;-59
2023/09/11 03:31:21;;;;;;;19.85;13.27;;;;;;;;;;5049934;28;20545;-60
2023/09/11 03:33:47;;;;;;;17.27;13.10;;;;;;;;;;5053722;28;20040;-56
2023/09/11 03:36:16;;;;;;;22.00;13.40;;;;;;;;;;5048914;28;20044;-56
2023/09/11 03:38:41;;;;;;;22.25;12.82;;;;;;;;;;5052504;28;20099;-56
2023/09/11 03:41:07;;;;;;;20.70;13.52;;;;;;;;;;5047311;28;20116;-61
2023/09/11 03:43:32;;;;;;;19.75;14.23;;;;;;;;;;5040416;28;20457;-56
2023/09/11 03:45:58;;;;;;;19.67;13.27;;;;;;;;;;5042932;28;20036;-56
2023/09/11 03:48:23;;;;;;;25.00;14.05;;;;;;;;;;5050887;28;20119;-58
2023/09/11 03:50:52;;;;;;;20.90;14.60;;;;;;;;;;5047959;28;20125;-58
2023/09/11 03:53:17;;;;;;;19.92;14.05;;;;;;;;;;5049331;28;20032;-57
2023/09/11 03:55:42;;;;;;;22.67;14.25;;;;;;;;;;5049711;28;20044;-54
2023/09/11 03:58:08;;;;;;;25.52;14.65;;;;;;;;;;5050281;28;20481;-56
2023/09/11 04:00:33;;;;;;;20.55;13.98;;;;;;;;;;5052465;28;20040;-56
2023/09/11 04:02:59;;;;;;;24.33;13.95;;;;;;;;;;5052070;28;20529;-57
2023/09/11 04:05:24;;;;;;;21.52;14.60;;;;;;;;;;5052172;28;20035;-59
2023/09/11 04:07:49;;;;;;;21.27;14.10;;;;;;;;;;5044420;28;20032;-56
2023/09/11 04:10:15;;;;;;;21.52;14.65;;;;;;;;;;5052197;28;20145;-53
2023/09/11 04:12:40;;;;;;;23.88;14.60;;;;;;;;;;5052766;28;20037;-55
2023/09/11 04:15:06;;;;;;;24.08;14.63;;;;;;;;;;5053390;28;20025;-53
2023/09/11 04:17:31;;;;;;;20.67;14.02;;;;;;;;;;5053210;28;20076;-55
2023/09/11 04:19:57;;;;;;;23.75;14.65;;;;;;;;;;5053464;28;20104;-55
2023/09/11 04:22:22;;;;;;;21.67;15.35;;;;;;;;;;5052726;28;20025;-55
2023/09/11 04:24:48;;;;;;;20.45;14.57;;;;;;;;;;5053647;28;20020;-55
2023/09/11 04:27:13;;;;;;;25.17;14.43;;;;;;;;;;5053502;28;20055;-55
2023/09/11 04:29:39;;;;;;;21.50;15.50;;;;;;;;;;5051865;28;20033;-56
2023/09/11 04:32:04;;;;;;;22.00;15.45;;;;;;;;;;5052540;28;20103;-57
2023/09/11 04:34:30;;;;;;;23.13;15.63;;;;;;;;;;5051707;28;20056;-54
2023/09/11 04:36:55;;;;;;;22.75;15.77;;;;;;;;;;5053483;28;20029;-54
2023/09/11 04:39:24;;;;;;;24.80;15.68;;;;;;;;;;5053289;28;20111;-55
2023/09/11 04:41:49;;;;;;;26.45;16.77;;;;;;;;;;5053360;28;20025;-56
2023/09/11 04:44:14;;;;;;;26.42;15.88;;;;;;;;;;5053420;28;20078;-54
2023/09/11 04:46:40;;;;;;;23.52;15.73;;;;;;;;;;5053028;28;20438;-54
2023/09/11 04:49:05;;;;;;;24.50;15.80;;;;;;;;;;5053429;28;20096;-52
2023/09/11 04:51:31;;;;;;;22.77;15.30;;;;;;;;;;5052301;28;20045;-54
2023/09/11 04:53:56;;;;;;;23.15;16.38;;;;;;;;;;5053356;28;20036;-53
2023/09/11 04:56:22;;;;;;;25.25;16.13;;;;;;;;;;5053239;28;20421;-52
2023/09/11 04:58:47;;;;;;;23.50;15.68;;;;;;;;;;5051320;28;20116;-53
2023/09/11 05:01:13;;;;;;;27.48;16.02;;;;;;;;;;5053054;28;20116;-51
2023/09/11 05:03:39;;;;;;;28.27;16.75;;;;;;;;;;5051966;28;20148;-51
2023/09/11 05:06:04;;;;;;;30.58;16.63;;;;;;;;;;5053685;28;20438;-56
2023/09/11 05:08:30;;;;;;;27.98;16.35;;;;;;;;;;5052490;28;20135;-56
2023/09/11 05:10:55;;;;;;;24.25;16.58;;;;;;;;;;5052953;28;20505;-56
2023/09/11 05:13:21;;;;;;;31.52;16.90;;;;;;;;;;5052472;28;20064;-54
2023/09/11 05:15:48;;;;;;;24.70;15.90;;;;;;;;;;5051980;28;20056;-51
2023/09/11 05:18:14;;;;;;;22.20;15.63;;;;;;;;;;5052754;28;20102;-55
2023/09/11 05:20:40;;;;;;;25.40;17.17;;;;;;;;;;5052061;28;20029;-56
2023/09/11 05:23:05;;;;;;;23.27;15.73;;;;;;;;;;5052669;28;20488;-56
2023/09/11 05:25:31;;;;;;;23.45;15.82;;;;;;;;;;5051993;28;20378;-55
2023/09/11 05:27:56;;;;;;;28.48;16.50;;;;;;;;;;5052310;28;20334;-55
2023/09/11 05:30:24;;;;;;;24.65;16.48;;;;;;;;;;5052532;28;20120;-57
2023/09/11 05:32:52;;;;;;;24.95;16.02;;;;;;;;;;5051762;28;20037;-56
2023/09/11 05:35:19;;;;;;;27.80;16.65;;;;;;;;;;5052211;28;20025;-55
2023/09/11 05:37:44;;;;;;;22.20;16.38;;;;;;;;;;5051852;28;20087;-55
2023/09/11 05:40:10;;;;;;;25.33;17.00;;;;;;;;;;5052014;28;20029;-53
2023/09/11 05:42:35;;;;;;;26.88;15.95;;;;;;;;;;5051701;28;20029;-56
2023/09/11 05:45:00;;;;;;;31.25;16.58;;;;;;;;;;5051999;28;20036;-54
2023/09/11 05:47:26;;;;;;;25.63;16.30;;;;;;;;;;5051848;28;20033;-56
2023/09/11 05:49:51;;;;;;;26.23;16.38;;;;;;;;;;5052303;28;20029;-56
2023/09/11 05:52:17;;;;;;;23.02;16.35;;;;;;;;;;5052087;28;20029;-52
2023/09/11 05:54:42;;;;;;;26.98;15.45;;;;;;;;;;5050158;28;20378;-54
2023/09/11 05:57:08;;;;;;;23.30;15.00;;;;;;;;;;5052526;28;20519;-54
2023/09/11 05:59:33;;;;;;;27.73;15.30;;;;;;;;;;5051596;28;20068;-53
2023/09/11 06:02:02;;;;;;;25.67;15.77;;;;;;;;;;5051950;28;20068;-55
2023/09/11 06:04:27;;;;;;;27.52;16.58;;;;;;;;;;5051448;28;20035;-58
2023/09/11 06:06:52;;;;;;;26.15;16.45;;;;;;;;;;5052047;28;20100;-55
2023/09/11 06:09:18;;;;;;;27.00;16.25;;;;;;;;;;5052082;28;20025;-55
2023/09/11 06:11:43;;;;;;;27.42;16.15;;;;;;;;;;5051233;28;20315;-56
2023/09/11 06:14:09;;;;;;;28.90;16.10;;;;;;;;;;5052062;28;20079;-55
2023/09/11 06:16:35;;;;;;;24.83;14.15;;;;;;;;;;5051350;28;20045;-56
2023/09/11 06:19:00;;;;;;;25.60;15.25;;;;;;;;;;5050573;28;20025;-56
2023/09/11 06:21:26;;;;;;;28.23;14.48;;;;;;;;;;5051753;28;20489;-56
2023/09/11 06:23:53;;;;;;;23.08;13.77;;;;;;;;;;5051468;28;20096;-55
2023/09/11 06:26:18;;;;;;;27.55;14.05;;;;;;;;;;5051898;28;20551;-53
2023/09/11 06:28:44;;;;;;;24.90;13.63;;;;;;;;;;5051503;28;20064;-57
2023/09/11 06:31:10;;;;;;;24.88;13.00;;;;;;;;;;5051823;28;20112;-57
2023/09/11 06:33:35;;;;;;;25.17;13.27;;;;;;;;;;5050997;28;20401;-56
2023/09/11 06:36:01;;;;;;;21.30;12.57;;;;;;;;;;5051780;28;20032;-56
2023/09/11 06:38:27;;;;;;;22.73;12.65;;;;;;;;;;5052082;28;20056;-53
2023/09/11 06:40:52;;;;;;;22.00;12.70;;;;;;;;;;5050981;28;20393;-54
2023/09/11 06:43:17;;;;;;;29.33;13.20;;;;;;;;;;5051792;28;20036;-55
2023/09/11 06:45:43;;;;;;;24.23;12.45;;;;;;;;;;5051150;28;20025;-56
2023/09/11 06:48:11;;;;;;;24.55;12.43;;;;;;;;;;5051702;28;20029;-56
2023/09/11 06:50:38;;;;;;;22.58;12.27;;;;;;;;;;5051357;28;20029;-56
2023/09/11 06:53:07;;;;;;;25.10;11.73;;;;;;;;;;5051587;28;20032;-57
2023/09/11 06:55:32;;;;;;;22.60;11.90;;;;;;;;;;5050947;28;20029;-54
2023/09/11 06:57:59;;;;;;;19.75;11.90;;;;;;;;;;5053177;28;20025;-53
2023/09/11 07:00:25;;;;;;;22.00;11.52;;;;;;;;;;5055415;28;20035;-56
2023/09/11 07:02:50;;;;;;;25.27;11.48;;;;;;;;;;5054445;28;20032;-58
2023/09/11 07:05:23;;;;;;;20.70;11.43;;;;;;;;;;5055435;28;20113;-55
2023/09/11 07:07:48;;;;;;;26.50;11.48;;;;;;;;;;5054717;28;20060;-57
2023/09/11 07:10:17;;;;;;;20.85;11.18;;;;;;;;;;5054953;28;20060;-57
2023/09/11 07:12:46;;;;;;;23.77;10.50;;;;;;;;;;5053279;28;20037;-55
2023/09/11 07:15:12;;;;;;;19.95;10.40;;;;;;;;;;5055131;28;20025;-55
2023/09/11 07:17:38;;;;;;;14.73;9.23;;;;;;;;;;5052846;28;20064;-56
2023/09/11 07:20:04;;;;;;;23.77;10.52;;;;;;;;;;5054990;28;20083;-56
2023/09/11 07:22:30;;;;;;;22.55;9.50;;;;;;;;;;5053512;28;20079;-56
2023/09/11 07:24:56;;;;;;;20.95;9.43;;;;;;;;;;5054411;28;20429;-54
2023/09/11 07:27:21;;;;;;;17.10;9.60;;;;;;;;;;5053631;28;20032;-56
2023/09/11 07:29:47;;;;;;;23.95;9.20;;;;;;;;;;5053014;28;20135;-55
2023/09/11 07:32:12;;;;;;;17.27;8.85;;;;;;;;;;5054828;28;20032;-56
2023/09/11 07:34:37;;;;;;;26.23;9.52;;;;;;;;;;5054332;28;20435;-55
2023/09/11 07:37:03;;;;;;;21.67;8.38;;;;;;;;;;5054847;28;20093;-53
2023/09/11 07:39:29;;;;;;;22.20;8.90;;;;;;;;;;5054754;28;20029;-52
2023/09/11 07:41:54;;;;;;;18.65;8.38;;;;;;;;;;5054123;28;20032;-57
2023/09/11 07:44:20;;;;;;;21.05;8.93;;;;;;;;;;5054797;28;20458;-55
2023/09/11 07:46:45;;;;;;;21.33;8.88;;;;;;;;;;5053778;28;20098;-53
2023/09/11 07:49:10;;;;;;;17.70;8.77;;;;;;;;;;5054653;28;20032;-55
2023/09/11 07:51:36;;;;;;;19.80;8.38;;;;;;;;;;5053960;28;20040;-55
2023/09/11 07:54:01;;;;;;;19.27;8.32;;;;;;;;;;5054661;28;20111;-55
2023/09/11 07:56:26;;;;;;;16.70;7.45;;;;;;;;;;5036687;28;20029;-56
2023/09/11 07:58:53;;;;;;;20.90;7.90;;;;;;;;;;5053897;28;20037;-57
2023/09/11 08:01:19;;;;;;;17.08;7.45;;;;;;;;;;5054171;28;20081;-54
2023/09/11 08:03:45;;;;;;;17.85;7.53;;;;;;;;;;5053617;28;20072;-56
2023/09/11 08:06:10;;;;;;;24.02;8.13;;;;;;;;;;5054262;28;20029;-56
2023/09/11 08:08:36;;;;;;;19.35;7.65;;;;;;;;;;5053123;28;20028;-55
2023/09/11 08:11:15;;;;;;;15.98;7.85;;;;;;;;;;5054337;28;20119;-56
2023/09/11 08:13:46;;;;;;;18.40;7.90;;;;;;;;;;5053870;28;20037;-55
2023/09/11 08:16:12;;;;;;;13.05;7.72;;;;;;;;;;5054101;28;20048;-55
2023/09/11 08:18:37;;;;;;;14.77;7.90;;;;;;;;;;5053522;28;20050;-55
2023/09/11 08:21:03;;;;;;;17.80;7.63;;;;;;;;;;5054103;28;20462;-57
2023/09/11 08:23:29;;;;;;;13.98;7.80;;;;;;;;;;5052323;28;20033;-56
2023/09/11 08:25:58;;;;;;;19.85;8.05;;;;;;;;;;5053363;28;20094;-56
2023/09/11 08:28:24;;;;;;;18.83;7.25;;;;;;;;;;5053733;28;20025;-55
2023/09/11 08:30:52;;;;;;;15.88;7.07;;;;;;;;;;5053275;28;20033;-57
2023/09/11 08:33:18;;;;;;;17.58;7.10;;;;;;;;;;5053511;28;20454;-55
2023/09/11 08:35:43;;;;;;;27.95;7.88;;;;;;;;;;5052800;28;20057;-55
2023/09/11 08:38:09;;;;;;;16.15;6.80;;;;;;;;;;5052377;28;20033;-55
2023/09/11 08:40:35;;;;;;;12.68;7.10;;;;;;;;;;5052438;28;20036;-56
2023/09/11 08:43:02;;;;;;;15.45;7.00;;;;;;;;;;5052718;28;20028;-56
2023/09/11 08:45:28;;;;;;;17.30;7.10;;;;;;;;;;5052829;28;20054;-57
2023/09/11 08:47:58;;;;;;;14.57;6.95;;;;;;;;;;5053130;28;20032;-56
2023/09/11 08:50:34;;;;;;;18.42;6.82;;;;;;;;;;5053637;28;20075;-57
2023/09/11 08:53:00;;;;;;;16.70;6.93;;;;;;;;;;5052753;28;20033;-56
2023/09/11 08:55:28;;;;;;;15.60;7.05;;;;;;;;;;5053432;28;20032;-55
2023/09/11 08:57:54;;;;;;;13.85;6.30;;;;;;;;;;5052605;28;20032;-56
2023/09/11 09:00:20;;;;;;;16.08;5.82;;;;;;;;;;5053429;28;20044;-57
2023/09/11 09:02:46;;;;;;;14.43;6.47;;;;;;;;;;5052529;28;20029;-53
2023/09/11 09:05:12;;;;;;;15.65;5.93;;;;;;;;;;5052082;28;20029;-56
2023/09/11 09:07:39;;;;;;;13.68;5.93;;;;;;;;;;5051875;28;20029;-58
2023/09/11 09:10:06;;;;;;;14.57;5.88;;;;;;;;;;5051569;28;20033;-57
2023/09/11 09:12:33;;;;;;;16.33;6.10;;;;;;;;;;5052902;28;20044;-55
2023/09/11 09:15:00;;;;;;;15.32;5.80;;;;;;;;;;5052729;28;20025;-55
2023/09/11 09:17:25;;;;;;;15.38;5.88;;;;;;;;;;5051590;28;20076;-55
2023/09/11 09:19:51;;;;;;;13.07;6.07;;;;;;;;;;5052181;28;20025;-55
2023/09/11 09:22:17;;;;;;;17.17;6.03;;;;;;;;;;5052537;28;20456;-55
2023/09/11 09:24:54;;;;;;;12.30;6.15;;;;;;;;;;5052032;28;20025;-59
2023/09/11 09:27:24;;;;;;;16.65;5.82;;;;;;;;;;5052851;28;20060;-56
2023/09/11 09:29:50;;;;;;;15.52;5.65;;;;;;;;;;5052287;28;20028;-55
2023/09/11 09:32:17;;;;;;;19.90;5.90;;;;;;;;;;5053133;28;20424;-57
2023/09/11 09:34:53;;;;;;;15.32;5.68;;;;;;;;;;5052086;28;20115;-54
2023/09/11 09:37:20;;;;;;;16.05;5.70;;;;;;;;;;5052755;28;20424;-57
2023/09/11 09:39:50;;;;;;;13.70;5.80;;;;;;;;;;5051946;28;20056;-57
2023/09/11 09:42:16;;;;;;;9.75;5.20;;;;;;;;;;5051138;28;20071;-55
2023/09/11 09:44:48;;;;;;;15.10;5.47;;;;;;;;;;5051779;28;20478;-55
2023/09/11 09:47:19;;;;;;;13.15;5.45;;;;;;;;;;5051739;28;20040;-57
2023/09/11 09:49:53;;;;;;;12.48;6.00;;;;;;;;;;5051576;28;20580;-55
2023/09/11 09:52:21;;;;;;;12.90;5.70;;;;;;;;;;5052330;28;20036;-54
2023/09/11 09:54:52;;;;;;;14.15;5.82;;;;;;;;;;5051460;28;20120;-56
2023/09/11 09:57:19;;;;;;;16.20;5.68;;;;;;;;;;5052333;28;20032;-54
2023/09/11 09:59:54;;;;;;;19.00;5.75;;;;;;;;;;5051668;28;20032;-54
2023/09/11 10:02:32;;;;;;;14.95;6.10;;;;;;;;;;5052097;28;20091;-55
2023/09/11 10:05:02;;;;;;;13.50;5.50;;;;;;;;;;5051931;28;20078;-57
2023/09/11 10:07:46;;;;;;;12.48;5.75;;;;;;;;;;5052321;28;20057;-56
2023/09/11 10:10:28;;;;;;;12.43;5.63;;;;;;;;;;5050627;28;20029;-56
2023/09/11 10:13:03;;;;;;;13.77;5.90;;;;;;;;;;5051411;28;20033;-56
2023/09/11 10:15:30;;;;;;;11.88;5.57;;;;;;;;;;5051924;28;20051;-57
2023/09/11 10:17:57;;;;;;;14.30;5.80;;;;;;;;;;5050303;28;20039;-55
2023/09/11 10:20:24;;;;;;;18.45;5.60;;;;;;;;;;5051852;28;20029;-56
2023/09/11 10:23:00;;;;;;;16.95;5.57;;;;;;;;;;5051319;28;20028;-56
2023/09/11 10:25:32;;;;;;;16.45;5.97;;;;;;;;;;5051817;28;20112;-57
2023/09/11 10:28:02;;;;;;;15.48;5.50;;;;;;;;;;5051437;28;20326;-57
2023/09/11 10:30:52;;;;;;;11.95;5.20;;;;;;;;;;5052070;28;20033;-55
2023/09/11 10:33:25;;;;;;;15.35;5.55;;;;;;;;;;5056270;28;20128;-56
2023/09/11 10:36:13;;;;;;;17.05;5.47;;;;;;;;;;5055184;28;20041;-59
2023/09/11 10:38:40;;;;;;;14.93;5.65;;;;;;;;;;5056300;28;20031;-57
2023/09/11 10:41:07;;;;;;;15.15;5.28;;;;;;;;;;5054222;28;20033;-57
2023/09/11 10:43:33;;;;;;;11.00;5.20;;;;;;;;;;5053983;28;20048;-55
2023/09/11 10:46:17;;;;;;;15.68;5.32;;;;;;;;;;5055238;28;20378;-58
2023/09/11 10:48:44;;;;;;;17.23;5.40;;;;;;;;;;5054700;28;20116;-57
2023/09/11 10:51:09;;;;;;;14.35;5.75;;;;;;;;;;5056017;28;20036;-52
2023/09/11 10:53:35;;;;;;;14.15;5.35;;;;;;;;;;5055364;28;20469;-58
2023/09/11 10:56:02;;;;;;;16.25;5.70;;;;;;;;;;5054587;28;20373;-54
2023/09/11 10:58:28;;;;;;;16.15;5.25;;;;;;;;;;5053939;28;20044;-55
2023/09/11 11:00:55;;;;;;;13.45;5.10;;;;;;;;;;5054796;28;20054;-56
2023/09/11 11:03:24;;;;;;;12.88;5.70;;;;;;;;;;5055240;28;20044;-55
2023/09/11 11:05:51;;;;;;;12.48;5.28;;;;;;;;;;5054616;28;20028;-55
2023/09/11 11:08:17;;;;;;;12.63;5.75;;;;;;;;;;5055770;28;20420;-55
2023/09/11 11:10:46;;;;;;;13.98;5.80;;;;;;;;;;5055442;28;20472;-57
2023/09/11 11:13:12;;;;;;;14.38;5.38;;;;;;;;;;5037507;28;20033;-53
2023/09/11 11:15:37;;;;;;;13.85;5.63;;;;;;;;;;5054951;28;20106;-53
2023/09/11 11:18:23;;;;;;;10.95;5.20;;;;;;;;;;5055037;28;20373;-55
2023/09/11 11:21:08;;;;;;;14.50;5.00;;;;;;;;;;5053499;28;20029;-55
2023/09/11 11:23:36;;;;;;;13.05;5.50;;;;;;;;;;5055114;28;20028;-57
2023/09/11 11:26:06;;;;;;;11.10;5.32;;;;;;;;;;5054668;28;20083;-56
2023/09/11 11:28:41;;;;;;;;;;;;;;;;;;5055606;28;20021;-57
2023/09/11 11:31:11;;;;;;;12.75;5.60;;;;;;;;;;5054503;28;19912;-58
2023/09/11 11:33:37;;;;;;;13.68;5.57;;;;;;;;;;5055027;28;20498;-56
2023/09/11 11:36:09;;;;;;;11.43;5.50;;;;;;;;;;5053088;28;20125;-55
2023/09/11 11:38:36;;;;;;;11.50;5.40;;;;;;;;;;5055263;28;20031;-57
2023/09/11 11:41:03;;;;;;;11.18;5.47;;;;;;;;;;5052548;28;20033;-57
2023/09/11 11:43:29;;;;;;;15.05;6.03;;;;;;;;;;5035843;28;20115;-57
2023/09/11 11:45:56;;;;;;;12.65;5.75;;;;;;;;;;5053562;28;20116;-56
2023/09/11 11:48:21;;;;;;;12.40;5.70;;;;;;;;;;5054825;28;20032;-56
2023/09/11 11:50:48;;;;;;;12.93;5.60;;;;;;;;;;5053333;28;20036;-54
2023/09/11 11:53:19;;;;;;;13.82;5.95;;;;;;;;;;5053633;28;20454;-56
2023/09/11 11:55:44;;;;;;;11.63;5.38;;;;;;;;;;5054472;28;20029;-54
2023/09/11 11:58:12;;;;;;;14.07;5.97;;;;;;;;;;5052293;28;20024;-56
2023/09/11 12:00:38;;;;;;;16.33;5.80;;;;;;;;;;5054479;28;20037;-58
2023/09/11 12:03:05;;;;;;;14.43;5.85;;;;;;;;;;5052906;28;20024;-57
2023/09/11 12:05:31;;;;;;;10.57;5.78;;;;;;;;;;5052727;28;20527;-57
2023/09/11 12:07:56;;;;;;;12.85;5.95;;;;;;;;;;5053663;28;20029;-57
2023/09/11 12:10:22;;;;;;;12.85;5.78;;;;;;;;;;5054385;28;20104;-57
2023/09/11 12:12:48;;;;;;;14.73;5.80;;;;;;;;;;5054349;28;20111;-55
2023/09/11 12:15:15;;;;;;;15.57;6.20;;;;;;;;;;5053315;28;20027;-57
2023/09/11 12:17:48;;;;;;;14.02;5.80;;;;;;;;;;5053821;28;20124;-57
2023/09/11 12:20:19;;;;;;;14.00;6.10;;;;;;;;;;5052286;28;20521;-57
2023/09/11 12:22:46;;;;;;;13.80;5.80;;;;;;;;;;5052917;28;20034;-54
2023/09/11 12:25:16;;;;;;;11.93;5.97;;;;;;;;;;5053578;28;20078;-54
2023/09/11 12:27:43;;;;;;;;;;;;;;;;;;5054804;28;20033;-54
2023/09/11 12:30:09;;;;;;;10.52;6.20;;;;;;;;;;5053690;28;19909;-57
2023/09/11 12:32:35;;;;;;;11.02;6.07;;;;;;;;;;5053969;28;20048;-57
2023/09/11 12:35:01;;;;;;;11.65;6.03;;;;;;;;;;5053328;28;20028;-51
2023/09/11 12:37:26;;;;;;;12.23;6.82;;;;;;;;;;5053888;28;20466;-55
2023/09/11 12:39:52;;;;;;;15.10;6.28;;;;;;;;;;5052927;28;20036;-57
2023/09/11 12:42:19;;;;;;;13.68;6.38;;;;;;;;;;5053743;28;20099;-60
2023/09/11 12:44:44;;;;;;;12.77;6.20;;;;;;;;;;5053328;28;20029;-54
2023/09/11 12:47:11;;;;;;;14.93;6.57;;;;;;;;;;5052304;28;20025;-54
2023/09/11 12:49:36;;;;;;;13.85;6.72;;;;;;;;;;5053617;28;20025;-56
2023/09/11 12:52:02;;;;;;;15.35;6.93;;;;;;;;;;5052713;28;20036;-53
2023/09/11 12:54:31;;;;;;;19.00;6.35;;;;;;;;;;5053175;28;20432;-53
2023/09/11 12:57:00;;;;;;;13.93;6.50;;;;;;;;;;5052249;28;20107;-55
2023/09/11 12:59:27;;;;;;;12.48;6.60;;;;;;;;;;5053288;28;20479;-58
2023/09/11 13:01:56;;;;;;;15.05;6.90;;;;;;;;;;5052742;28;20029;-59
2023/09/11 13:04:27;;;;;;;15.45;6.82;;;;;;;;;;5053247;28;20029;-56
2023/09/11 13:06:53;;;;;;;12.02;6.57;;;;;;;;;;5052396;28;20040;-58
2023/09/11 13:09:25;;;;;;;12.73;6.53;;;;;;;;;;5052942;28;20037;-55
2023/09/11 13:11:50;;;;;;;13.40;6.70;;;;;;;;;;5053478;28;20029;-55
2023/09/11 13:14:16;;;;;;;16.65;7.13;;;;;;;;;;5051211;28;20039;-56
2023/09/11 13:16:44;;;;;;;16.58;7.03;;;;;;;;;;5052807;28;20239;-57
2023/09/11 13:19:10;;;;;;;15.13;6.63;;;;;;;;;;5052223;28;20075;-54
2023/09/11 13:21:35;;;;;;;16.38;7.60;;;;;;;;;;5051661;28;20029;-56
2023/09/11 13:24:01;;;;;;;13.13;6.97;;;;;;;;;;5050745;28;20029;-58
2023/09/11 13:26:27;;;;;;;18.63;7.35;;;;;;;;;;5052878;28;20033;-57
2023/09/11 13:28:52;;;;;;;19.65;7.43;;;;;;;;;;5051557;28;20040;-56
2023/09/11 13:31:18;;;;;;;17.70;6.90;;;;;;;;;;5052439;28;20381;-57
2023/09/11 13:33:43;;;;;;;12.75;7.03;;;;;;;;;;5052748;28;20063;-57
2023/09/11 13:36:10;;;;;;;16.80;7.05;;;;;;;;;;5052137;28;20491;-56
2023/09/11 13:38:36;;;;;;;12.45;7.10;;;;;;;;;;5051515;28;20123;-54
2023/09/11 13:41:01;;;;;;;13.88;7.35;;;;;;;;;;5051864;28;20148;-57
2023/09/11 13:43:27;;;;;;;15.52;7.05;;;;;;;;;;5052195;28;20497;-56
2023/09/11 13:45:52;;;;;;;13.68;7.60;;;;;;;;;;5051902;28;20108;-56
2023/09/11 13:48:17;;;;;;;14.75;7.45;;;;;;;;;;5050977;28;20381;-57
2023/09/11 13:50:43;;;;;;;16.63;7.70;;;;;;;;;;5052246;28;20100;-56
2023/09/11 13:53:08;;;;;;;14.75;7.97;;;;;;;;;;5051498;28;20120;-57
2023/09/11 13:55:34;;;;;;;18.40;8.07;;;;;;;;;;5052130;28;20028;-54
2023/09/11 13:57:59;;;;;;;23.23;8.02;;;;;;;;;;5051748;28;20035;-57
2023/09/11 14:00:24;;;;;;;14.13;7.70;;;;;;;;;;5052234;28;20115;-57
2023/09/11 14:02:50;;;;;;;16.55;8.85;;;;;;;;;;5051065;28;20025;-57
2023/09/11 14:05:15;;;;;;;15.10;8.00;;;;;;;;;;5051680;28;20040;-55
2023/09/11 14:07:41;;;;;;;16.85;8.00;;;;;;;;;;5051737;28;20047;-56
2023/09/11 14:10:07;;;;;;;15.35;8.30;;;;;;;;;;5051520;28;20591;-56
2023/09/11 14:12:32;;;;;;;12.35;7.88;;;;;;;;;;5051970;28;20122;-57
2023/09/11 14:14:57;;;;;;;14.52;7.63;;;;;;;;;;5051310;28;20381;-57
2023/09/11 14:17:23;;;;;;;12.18;7.50;;;;;;;;;;5052100;28;20428;-56
2023/09/11 14:19:48;;;;;;;13.27;7.40;;;;;;;;;;5051949;28;20028;-57
2023/09/11 14:22:13;;;;;;;15.93;7.20;;;;;;;;;;5051707;28;20025;-56